Time;durP1;ratioP1;P1;durP2;ratioP2;P2;SDS_P1;SDS_P2;PMS_P1;PMS_P2;Temp;Humidity;BMP_temperature;BMP_pressure;BME280_temperature;BME280_humidity;BME280_pressure;Samples;Min_cycle;Max_cycle;Signal;HPM_P1;HPM_P2
2022/10/05 00:02:16;;;;;;;0.40;0.40;;;;;;;12.84;93.09;99915.88;5068808;28;20028;-67
2022/10/05 00:04:42;;;;;;;2.97;2.67;;;;;;;12.88;92.69;99896.69;5068463;28;20021;-68
2022/10/05 00:07:14;;;;;;;1.75;1.65;;;;;;;12.88;93.08;99907.13;5068639;28;20035;-67
2022/10/05 00:09:39;;;;;;;;;;;;;;;12.95;93.06;99901.75;5068874;28;20159;-67
2022/10/05 00:12:16;;;;;;;0.77;0.77;;;;;;;12.93;92.85;99900.91;5068357;28;19963;-66
2022/10/05 00:14:43;;;;;;;0.40;0.40;;;;;;;12.94;92.79;99913.91;5068271;28;20024;-67
2022/10/05 00:17:14;;;;;;;0.82;0.82;;;;;;;12.94;93.22;99910.47;5068621;28;20111;-68
2022/10/05 00:19:41;;;;;;;0.60;0.60;;;;;;;12.95;93.07;99883.50;5067183;28;20021;-67
2022/10/05 00:22:16;;;;;;;0.40;0.40;;;;;;;12.97;93.27;99892.97;5068493;28;20083;-67
2022/10/05 00:24:43;;;;;;;0.30;0.30;;;;;;;12.97;93.47;99879.13;5068143;28;20476;-68
2022/10/05 00:27:18;;;;;;;0.50;0.50;;;;;;;12.95;93.85;99880.91;5068113;28;20469;-67
2022/10/05 00:29:45;;;;;;;1.10;1.10;;;;;;;12.96;93.95;99880.00;5068450;28;20025;-67
2022/10/05 00:32:10;;;;;;;0.50;0.50;;;;;;;12.93;93.99;99880.94;5068199;28;20082;-67
2022/10/05 00:34:36;;;;;;;0.52;0.52;;;;;;;12.98;93.72;99886.88;5068335;28;20121;-68
2022/10/05 00:37:03;;;;;;;0.40;0.40;;;;;;;13.02;93.78;99901.53;5068002;28;20025;-69
2022/10/05 00:39:28;;;;;;;0.45;0.45;;;;;;;13.04;93.78;99892.81;5066397;28;20029;-67
2022/10/05 00:42:12;;;;;;;0.40;0.40;;;;;;;13.06;94.05;99884.06;5067971;28;20474;-67
2022/10/05 00:44:56;;;;;;;2.05;1.02;;;;;;;13.07;93.71;99879.69;5067679;28;20025;-67
2022/10/05 00:47:35;;;;;;;0.40;0.40;;;;;;;13.11;93.70;99882.22;5067814;28;20051;-67
2022/10/05 00:50:31;;;;;;;0.50;0.50;;;;;;;13.11;93.52;99870.91;5066760;28;20051;-68
2022/10/05 00:53:34;;;;;;;0.40;0.40;;;;;;;13.14;93.61;99879.50;5067431;28;20044;-66
2022/10/05 00:56:10;;;;;;;1.02;0.95;;;;;;;13.14;93.26;99876.91;5067819;28;20040;-66
2022/10/05 00:58:45;;;;;;;0.40;0.40;;;;;;;13.13;93.38;99880.38;5068258;28;20025;-66
2022/10/05 01:01:14;;;;;;;0.30;0.30;;;;;;;13.17;93.07;99865.53;5067519;28;20380;-68
2022/10/05 01:03:48;;;;;;;0.30;0.30;;;;;;;13.18;93.14;99850.75;5067563;28;20021;-66
2022/10/05 01:06:41;;;;;;;0.47;0.47;;;;;;;13.14;93.46;99849.97;5065999;28;20093;-66
2022/10/05 01:09:32;;;;;;;0.63;0.63;;;;;;;13.12;93.16;99852.63;5066963;28;20457;-67
2022/10/05 01:12:18;;;;;;;0.30;0.30;;;;;;;13.12;93.19;99856.97;5067202;28;20489;-67
2022/10/05 01:15:01;;;;;;;1.27;1.27;;;;;;;13.07;93.52;99854.50;5067212;28;20115;-66
2022/10/05 01:17:58;;;;;;;0.43;0.43;;;;;;;13.10;93.44;99849.19;5067056;28;20025;-68
2022/10/05 01:20:32;;;;;;;0.40;0.40;;;;;;;13.10;93.81;99840.56;5043481;28;20047;-68
2022/10/05 01:23:16;;;;;;;0.40;0.40;;;;;;;13.08;94.06;99842.34;5066791;28;20490;-68
2022/10/05 01:26:00;;;;;;;0.40;0.40;;;;;;;13.08;94.40;99844.94;5067009;28;20492;-68
2022/10/05 01:28:30;;;;;;;0.40;0.40;;;;;;;13.09;94.30;99839.69;5067020;28;20078;-68
2022/10/05 01:31:13;;;;;;;0.40;0.40;;;;;;;13.12;94.40;99838.75;5066908;28;20092;-69
2022/10/05 01:33:46;;;;;;;0.40;0.40;;;;;;;13.10;94.18;99841.38;5066854;28;20025;-69
2022/10/05 01:36:47;;;;;;;0.40;0.40;;;;;;;13.12;94.25;99850.03;5066648;28;20117;-68
2022/10/05 01:39:47;;;;;;;0.40;0.40;;;;;;;13.13;94.16;99843.91;5066667;28;20055;-66
2022/10/05 01:42:18;;;;;;;0.30;0.30;;;;;;;13.13;94.14;99850.88;5066647;28;20025;-67
2022/10/05 01:45:29;;;;;;;0.40;0.40;;;;;;;13.16;94.13;99842.13;5066796;28;20025;-68
2022/10/05 01:48:36;;;;;;;0.40;0.40;;;;;;;13.17;94.54;99834.25;5004967;28;20057;-68
2022/10/05 01:51:17;;;;;;;1.35;1.33;;;;;;;13.19;94.23;99815.97;5004210;28;20038;-66
2022/10/05 01:54:17;;;;;;;0.50;0.50;;;;;;;13.19;94.84;99827.25;5004739;28;20049;-66
2022/10/05 01:56:59;;;;;;;0.30;0.30;;;;;;;13.19;94.81;99826.41;5004418;28;20268;-66
2022/10/05 01:59:44;;;;;;;;;;;;;;;13.24;94.91;99830.56;5005118;28;20525;-66
2022/10/05 02:02:15;;;;;;;1.95;1.63;;;;;;;13.22;94.32;99819.34;4993977;28;19914;-67
2022/10/05 02:04:45;;;;;;;1.13;1.13;;;;;;;13.20;94.33;99822.88;5004622;28;20026;-67
2022/10/05 02:07:19;;;;;;;0.45;0.45;;;;;;;13.20;94.87;99831.56;5004596;28;20034;-67
2022/10/05 02:09:54;;;;;;;0.40;0.40;;;;;;;13.23;95.15;99836.69;5004486;28;20042;-66
2022/10/05 02:12:24;;;;;;;0.40;0.40;;;;;;;13.22;94.69;99823.69;4988085;28;20042;-69
2022/10/05 02:14:54;;;;;;;0.40;0.40;;;;;;;13.20;95.20;99807.25;5004254;28;20105;-68
2022/10/05 02:17:26;;;;;;;0.30;0.30;;;;;;;13.29;95.16;99825.22;5004557;28;20458;-68
2022/10/05 02:19:56;;;;;;;;;;;;;;;13.32;95.09;99821.69;5004801;28;20126;-68
2022/10/05 02:22:43;;;;;;;0.60;0.60;;;;;;;13.30;95.07;99818.25;5047046;28;19917;-68
2022/10/05 02:25:13;;;;;;;0.50;0.50;;;;;;;13.31;95.08;99810.38;5065331;28;20526;-66
2022/10/05 02:27:51;;;;;;;0.30;0.30;;;;;;;13.29;95.28;99820.00;5064464;28;20029;-66
2022/10/05 02:30:18;;;;;;;0.40;0.40;;;;;;;13.30;95.10;99816.50;5065635;28;20029;-66
2022/10/05 02:32:51;;;;;;;0.35;0.35;;;;;;;13.35;95.39;99816.38;5065786;28;20487;-66
2022/10/05 02:35:18;;;;;;;2.15;2.05;;;;;;;13.35;95.04;99809.41;5065497;28;20040;-66
2022/10/05 02:38:13;;;;;;;0.40;0.40;;;;;;;13.37;95.33;99798.94;5065665;28;20098;-66
2022/10/05 02:41:11;;;;;;;0.50;0.50;;;;;;;13.39;95.00;99803.19;5065550;28;20095;-66
2022/10/05 02:43:54;;;;;;;0.30;0.30;;;;;;;13.45;95.12;99806.53;5065671;28;20021;-67
2022/10/05 02:46:41;;;;;;;0.40;0.40;;;;;;;13.46;94.80;99798.66;5065449;28;20025;-66
2022/10/05 02:49:18;;;;;;;0.30;0.30;;;;;;;13.47;94.57;99802.09;5065462;28;20078;-68
2022/10/05 02:52:02;;;;;;;1.35;1.27;;;;;;;13.43;94.90;99800.50;5065390;28;20025;-67
2022/10/05 02:54:41;;;;;;;0.30;0.30;;;;;;;13.41;94.72;99795.34;5065381;28;20021;-68
2022/10/05 02:57:21;;;;;;;0.50;0.50;;;;;;;13.42;94.98;99789.22;5065297;28;20021;-68
2022/10/05 02:59:57;;;;;;;0.32;0.32;;;;;;;13.41;94.77;99792.72;5065427;28;20029;-68
2022/10/05 03:02:38;;;;;;;0.30;0.30;;;;;;;13.41;94.94;99790.13;5065340;28;20028;-67
2022/10/05 03:05:13;;;;;;;0.40;0.40;;;;;;;13.44;95.08;99789.16;5065170;28;20047;-69
2022/10/05 03:07:59;;;;;;;0.30;0.30;;;;;;;13.43;95.12;99784.84;5065462;28;20025;-68
2022/10/05 03:10:49;;;;;;;0.30;0.30;;;;;;;13.42;95.32;99788.38;5063831;28;20028;-68
2022/10/05 03:13:23;;;;;;;1.30;0.90;;;;;;;13.39;94.92;99777.13;5064427;28;20040;-67
2022/10/05 03:16:20;;;;;;;0.35;0.35;;;;;;;13.38;95.50;99770.22;5065117;28;20031;-67
2022/10/05 03:18:48;;;;;;;3.40;1.05;;;;;;;13.41;95.15;99765.78;5057188;28;20063;-68
2022/10/05 03:21:37;;;;;;;0.30;0.30;;;;;;;13.38;95.64;99753.72;5064859;28;20053;-67
2022/10/05 03:24:30;;;;;;;0.45;0.45;;;;;;;13.35;95.74;99749.47;5065055;28;20044;-67
2022/10/05 03:27:15;;;;;;;1.60;1.58;;;;;;;13.37;95.87;99742.41;5065135;28;20104;-66
2022/10/05 03:29:43;;;;;;;0.30;0.30;;;;;;;13.38;95.59;99746.75;5065085;28;20021;-67
2022/10/05 03:32:42;;;;;;;0.38;0.38;;;;;;;13.39;96.15;99744.97;5064978;28;20048;-68
2022/10/05 03:35:17;;;;;;;0.40;0.40;;;;;;;13.37;96.11;99749.41;5065282;28;20033;-68
2022/10/05 03:38:11;;;;;;;0.40;0.40;;;;;;;13.37;96.49;99754.63;5065305;28;20039;-68
2022/10/05 03:40:44;;;;;;;0.40;0.40;;;;;;;13.39;96.51;99751.06;5065104;28;20021;-68
2022/10/05 03:43:27;;;;;;;0.30;0.30;;;;;;;13.43;96.40;99750.97;5065018;28;20044;-68
2022/10/05 03:46:27;;;;;;;0.35;0.35;;;;;;;13.44;96.42;99758.72;5064896;28;20025;-68
2022/10/05 03:49:12;;;;;;;0.68;0.68;;;;;;;13.46;96.54;99766.50;5064501;28;20052;-68
2022/10/05 03:51:44;;;;;;;8.60;4.78;;;;;;;13.46;96.58;99751.72;5064939;28;20029;-67
2022/10/05 03:54:15;;;;;;;0.40;0.40;;;;;;;13.47;96.73;99757.78;5064870;28;20029;-67
2022/10/05 03:56:45;;;;;;;0.40;0.40;;;;;;;13.50;96.47;99736.81;5064870;28;20028;-67
2022/10/05 03:59:25;;;;;;;0.30;0.30;;;;;;;13.51;96.92;99743.78;5064962;28;20032;-66
2022/10/05 04:01:55;;;;;;;0.38;0.38;;;;;;;13.54;96.56;99733.25;5064757;28;20056;-69
2022/10/05 04:04:37;;;;;;;0.30;0.30;;;;;;;13.56;96.66;99738.44;5063265;28;20021;-65
2022/10/05 04:07:10;;;;;;;1.05;1.05;;;;;;;13.56;96.45;99733.22;5064719;28;20032;-68
2022/10/05 04:09:41;;;;;;;0.35;0.35;;;;;;;13.54;96.31;99737.63;5064667;28;20029;-68
2022/10/05 04:12:31;;;;;;;0.40;0.40;;;;;;;13.58;96.70;99737.47;5064694;28;20025;-66
2022/10/05 04:15:02;;;;;;;0.38;0.38;;;;;;;13.60;96.36;99734.81;5064570;28;20049;-67
2022/10/05 04:17:38;;;;;;;0.32;0.32;;;;;;;13.61;96.38;99728.72;5064673;28;20017;-67
2022/10/05 04:20:13;;;;;;;0.30;0.30;;;;;;;13.63;96.54;99719.06;5064825;28;20021;-67
2022/10/05 04:22:48;;;;;;;1.33;1.30;;;;;;;13.60;96.16;99714.81;5064519;28;20041;-68
2022/10/05 04:25:19;;;;;;;0.40;0.40;;;;;;;13.69;96.24;99725.84;5067719;28;20545;-69
2022/10/05 04:27:52;;;;;;;0.30;0.30;;;;;;;13.69;96.16;99733.69;5068419;28;20089;-68
2022/10/05 04:30:18;;;;;;;0.30;0.30;;;;;;;13.69;96.40;99731.91;5068304;28;20031;-68
2022/10/05 04:32:51;;;;;;;0.40;0.40;;;;;;;13.68;96.43;99735.44;5067875;28;20074;-67
2022/10/05 04:35:51;;;;;;;0.45;0.45;;;;;;;13.70;96.51;99732.78;5067542;28;20025;-67
2022/10/05 04:38:47;;;;;;;0.30;0.30;;;;;;;13.69;96.57;99731.06;5068195;28;20037;-67
2022/10/05 04:41:42;;;;;;;0.55;0.55;;;;;;;13.71;96.41;99724.03;5068047;28;20028;-67
2022/10/05 04:44:28;;;;;;;0.40;0.40;;;;;;;13.72;96.40;99720.53;5067792;28;20311;-67
2022/10/05 04:47:00;;;;;;;1.00;1.00;;;;;;;13.71;96.39;99719.66;5067741;28;20021;-67
2022/10/05 04:49:44;;;;;;;0.40;0.40;;;;;;;13.72;96.65;99718.75;5067837;28;20032;-66
2022/10/05 04:52:15;;;;;;;0.40;0.40;;;;;;;13.74;96.33;99708.28;5067737;28;20465;-67
2022/10/05 04:55:24;;;;;;;0.43;0.43;;;;;;;13.77;96.67;99710.78;5067502;28;20028;-68
2022/10/05 04:58:27;;;;;;;0.30;0.30;;;;;;;13.75;96.67;99705.63;5066601;28;20025;-66
2022/10/05 05:01:17;;;;;;;0.68;0.68;;;;;;;13.75;96.58;99702.19;5067703;28;20024;-67
2022/10/05 05:03:47;;;;;;;0.40;0.40;;;;;;;13.73;96.29;99702.22;5067805;28;20100;-67
2022/10/05 05:06:21;;;;;;;0.30;0.30;;;;;;;13.73;96.69;99724.84;5067502;28;20033;-68
2022/10/05 05:09:02;;;;;;;0.70;0.70;;;;;;;13.71;96.80;99711.84;5067457;28;20475;-68
2022/10/05 05:11:36;;;;;;;0.88;0.88;;;;;;;13.68;97.07;99719.78;5066052;28;20043;-68
2022/10/05 05:14:51;;;;;;;0.35;0.35;;;;;;;13.73;96.99;99715.28;5067399;28;20446;-68
2022/10/05 05:17:25;;;;;;;0.40;0.40;;;;;;;13.71;97.00;99710.97;5005084;28;20089;-67
2022/10/05 05:20:02;;;;;;;0.45;0.45;;;;;;;13.71;97.25;99714.47;5005629;28;20483;-68
2022/10/05 05:22:39;;;;;;;0.60;0.60;;;;;;;13.74;97.43;99701.31;5005501;28;20050;-66
2022/10/05 05:25:29;;;;;;;0.98;0.98;;;;;;;13.72;97.32;99695.28;4989087;28;20094;-67
2022/10/05 05:28:00;;;;;;;0.50;0.50;;;;;;;13.72;97.43;99691.84;5006004;28;20038;-67
2022/10/05 05:30:47;;;;;;;0.63;0.63;;;;;;;13.77;97.09;99702.94;5005862;28;20098;-67
2022/10/05 05:33:26;;;;;;;0.30;0.30;;;;;;;13.78;97.20;99709.91;5005398;28;20130;-67
2022/10/05 05:35:57;;;;;;;0.30;0.30;;;;;;;13.79;97.35;99705.50;5005102;28;20030;-66
2022/10/05 05:38:28;;;;;;;0.52;0.52;;;;;;;13.79;97.21;99702.91;5006020;28;20039;-68
2022/10/05 05:40:54;;;;;;;1.90;1.23;;;;;;;13.78;97.26;99701.22;5005889;28;20060;-67
2022/10/05 05:43:56;;;;;;;0.30;0.30;;;;;;;13.78;97.70;99696.84;5005434;28;20065;-67
2022/10/05 05:46:44;;;;;;;0.30;0.30;;;;;;;13.77;97.82;99705.56;5005050;28;20069;-67
2022/10/05 05:49:42;;;;;;;0.30;0.30;;;;;;;13.78;98.12;99698.59;5003732;28;20022;-67
2022/10/05 05:52:13;;;;;;;0.70;0.70;;;;;;;13.77;97.80;99700.34;4965444;29;20031;-67
2022/10/05 05:55:05;;;;;;;0.40;0.40;;;;;;;13.77;98.22;99702.94;5003908;28;20064;-68
2022/10/05 05:57:33;;;;;;;0.50;0.50;;;;;;;13.78;98.24;99707.28;5003538;28;20034;-68
2022/10/05 06:00:25;;;;;;;0.30;0.30;;;;;;;13.79;98.59;99706.38;5004117;28;20061;-68
2022/10/05 06:02:55;;;;;;;1.30;1.30;;;;;;;13.77;98.68;99713.38;4999329;28;20039;-68
2022/10/05 06:05:37;;;;;;;0.40;0.40;;;;;;;13.79;98.72;99708.13;5003508;28;20034;-68
2022/10/05 06:08:17;;;;;;;0.40;0.40;;;;;;;13.67;98.54;99680.69;5004195;28;20034;-68
2022/10/05 06:10:49;;;;;;;0.40;0.40;;;;;;;13.76;98.77;99701.25;5003768;28;20069;-68
2022/10/05 06:13:28;;;;;;;0.60;0.60;;;;;;;13.77;98.89;99697.75;4986778;28;20037;-67
2022/10/05 06:16:08;;;;;;;1.55;1.45;;;;;;;13.80;98.96;99695.03;4986837;28;20380;-68
2022/10/05 06:18:36;;;;;;;0.30;0.30;;;;;;;13.76;98.60;99696.03;5003192;28;20062;-68
2022/10/05 06:21:10;;;;;;;0.68;0.68;;;;;;;13.81;98.76;99683.72;5003137;28;20046;-68
2022/10/05 06:24:01;;;;;;;0.43;0.43;;;;;;;13.82;98.75;99693.22;5002793;28;20034;-69
2022/10/05 06:26:54;;;;;;;0.40;0.40;;;;;;;13.84;98.74;99691.44;5003271;28;20023;-69
2022/10/05 06:29:24;;;;;;;0.60;0.60;;;;;;;13.84;98.79;99698.41;5042739;28;20040;-68
2022/10/05 06:32:13;;;;;;;0.77;0.77;;;;;;;13.88;98.10;99700.00;5064864;28;20142;-67
2022/10/05 06:35:16;;;;;;;0.30;0.30;;;;;;;13.84;98.67;99688.81;5064924;28;20032;-68
2022/10/05 06:38:03;;;;;;;1.40;0.47;;;;;;;13.84;98.34;99693.19;5064678;28;20077;-68
2022/10/05 06:40:49;;;;;;;0.40;0.40;;;;;;;13.81;99.00;99704.56;5064562;28;20032;-68
2022/10/05 06:43:39;;;;;;;0.30;0.30;;;;;;;13.80;99.14;99702.03;5064629;28;20021;-69
2022/10/05 06:46:22;;;;;;;0.45;0.45;;;;;;;13.79;98.93;99697.69;5064502;28;20288;-69
2022/10/05 06:49:25;;;;;;;3.45;2.83;;;;;;;13.81;99.28;99695.88;5063878;28;20021;-68
2022/10/05 06:52:13;;;;;;;0.40;0.40;;;;;;;13.81;99.23;99691.53;5064379;28;20028;-69
2022/10/05 06:54:49;;;;;;;1.95;1.85;;;;;;;13.76;99.22;99685.59;5064384;28;20051;-69
2022/10/05 06:57:20;;;;;;;0.40;0.40;;;;;;;13.74;99.41;99687.41;5064403;28;20059;-69
2022/10/05 06:59:55;;;;;;;0.60;0.60;;;;;;;13.70;99.44;99691.03;5064638;28;20024;-69
2022/10/05 07:02:50;;;;;;;0.30;0.30;;;;;;;13.70;99.83;99693.63;5064310;28;20025;-69
2022/10/05 07:05:33;;;;;;;0.60;0.60;;;;;;;13.67;100.00;99691.13;5064524;28;20025;-68
2022/10/05 07:08:30;;;;;;;1.02;1.02;;;;;;;13.67;100.00;99684.19;5063105;28;20036;-69
2022/10/05 07:11:48;;;;;;;0.30;0.30;;;;;;;13.69;100.00;99692.78;5064269;28;20028;-70
2022/10/05 07:14:19;;;;;;;0.75;0.75;;;;;;;13.72;100.00;99677.03;5013732;28;20049;-69
2022/10/05 07:17:03;;;;;;;0.60;0.60;;;;;;;13.75;100.00;99669.09;5064317;28;20021;-70
2022/10/05 07:20:14;;;;;;;2.28;2.17;;;;;;;13.78;100.00;99670.78;5064262;28;20021;-69
2022/10/05 07:22:45;;;;;;;0.40;0.40;;;;;;;13.79;99.53;99669.84;5064067;28;20045;-69
2022/10/05 07:25:14;;;;;;;0.50;0.50;;;;;;;13.77;100.00;99674.25;5064072;28;20031;-69
2022/10/05 07:27:56;;;;;;;0.70;0.68;;;;;;;13.73;100.00;99686.56;5064111;28;20056;-69
2022/10/05 07:30:22;;;;;;;0.43;0.43;;;;;;;13.79;100.00;99690.72;5064119;28;20039;-68
2022/10/05 07:33:04;;;;;;;0.70;0.70;;;;;;;13.79;100.00;99680.28;5046098;28;20075;-68
2022/10/05 07:38:45;;;;;;;;;;;;;;;13.82;100.00;99682.78;5064473;28;20032;-70
2022/10/05 07:41:30;;;;;;;0.40;0.40;;;;;;;13.80;100.00;99684.59;5064177;28;20371;-69
2022/10/05 07:44:14;;;;;;;0.30;0.30;;;;;;;13.83;100.00;99681.03;5064098;28;20033;-69
2022/10/05 07:46:46;;;;;;;0.60;0.60;;;;;;;13.84;100.00;99693.19;5063861;28;20029;-69
2022/10/05 07:49:20;;;;;;;0.30;0.30;;;;;;;13.83;100.00;99689.72;5064319;28;20087;-70
2022/10/05 07:52:10;;;;;;;0.30;0.30;;;;;;;13.88;100.00;99690.41;5064029;28;20029;-70
2022/10/05 07:55:01;;;;;;;1.77;1.35;;;;;;;13.93;100.00;99679.81;5063733;28;20025;-70
2022/10/05 07:57:53;;;;;;;0.95;0.95;;;;;;;13.91;100.00;99691.22;5063324;28;20045;-71
2022/10/05 08:00:21;;;;;;;1.27;1.20;;;;;;;13.95;100.00;99688.44;5067679;28;20098;-70
2022/10/05 08:02:57;;;;;;;1.10;1.10;;;;;;;13.95;100.00;99682.38;5067900;28;20035;-70
2022/10/05 08:05:37;;;;;;;0.50;0.50;;;;;;;13.97;100.00;99673.59;5067922;28;20076;-69
2022/10/05 08:08:10;;;;;;;1.13;1.13;;;;;;;14.03;100.00;99672.53;5067693;28;20040;-68
2022/10/05 08:10:42;;;;;;;0.40;0.40;;;;;;;14.04;100.00;99683.81;5067862;28;20025;-70
2022/10/05 08:13:15;;;;;;;0.38;0.38;;;;;;;14.06;100.00;99672.41;5067695;28;20032;-67
2022/10/05 08:15:43;;;;;;;0.40;0.40;;;;;;;14.06;100.00;99682.00;5066767;28;20051;-67
2022/10/05 08:18:39;;;;;;;0.30;0.30;;;;;;;14.06;100.00;99668.94;5067219;28;20512;-67
2022/10/05 08:21:10;;;;;;;0.40;0.40;;;;;;;14.03;100.00;99664.69;5066122;28;20045;-67
2022/10/05 08:24:04;;;;;;;0.40;0.40;;;;;;;14.11;100.00;99648.75;5065084;28;20087;-68
2022/10/05 08:27:00;;;;;;;0.30;0.30;;;;;;;14.22;99.75;99651.84;5067276;28;20025;-68
2022/10/05 08:29:36;;;;;;;0.30;0.30;;;;;;;14.21;99.76;99664.97;5065674;28;20025;-67
2022/10/05 08:32:23;;;;;;;0.38;0.38;;;;;;;14.22;99.66;99666.66;5067124;28;20017;-67
2022/10/05 08:34:56;;;;;;;0.30;0.30;;;;;;;14.19;99.76;99656.31;5065966;28;20075;-68
2022/10/05 08:37:31;;;;;;;0.30;0.30;;;;;;;14.17;99.64;99664.22;5067210;28;20056;-68
2022/10/05 08:40:17;;;;;;;0.30;0.30;;;;;;;14.19;99.90;99657.19;5066853;28;20025;-68
2022/10/05 08:43:13;;;;;;;0.82;0.82;;;;;;;14.21;99.68;99668.44;5067326;28;20037;-67
2022/10/05 08:45:54;;;;;;;0.30;0.30;;;;;;;14.24;99.17;99651.78;5065648;28;20029;-66
2022/10/05 08:48:50;;;;;;;0.30;0.30;;;;;;;14.19;99.11;99666.75;5067064;28;20081;-65
2022/10/05 08:51:37;;;;;;;0.30;0.30;;;;;;;14.11;99.15;99646.16;5067015;28;20036;-66
2022/10/05 08:54:37;;;;;;;0.30;0.30;;;;;;;14.10;98.73;99655.75;5065161;28;20036;-67
2022/10/05 08:57:15;;;;;;;0.40;0.40;;;;;;;14.04;98.68;99639.47;5066500;28;20044;-65
2022/10/05 09:00:16;;;;;;;1.33;1.25;;;;;;;13.95;99.48;99641.47;5066629;28;20021;-63
2022/10/05 09:02:47;;;;;;;0.32;0.32;;;;;;;13.93;99.61;99629.41;5066758;28;20055;-64
2022/10/05 09:05:21;;;;;;;0.45;0.45;;;;;;;13.92;99.65;99638.13;5066695;28;20056;-63
2022/10/05 09:08:08;;;;;;;0.40;0.40;;;;;;;13.93;99.71;99630.25;5066475;28;20049;-64
2022/10/05 09:11:04;;;;;;;1.88;1.77;;;;;;;13.93;99.90;99632.00;5065433;28;20024;-65
2022/10/05 09:13:32;;;;;;;0.30;0.30;;;;;;;13.92;100.00;99622.47;5066483;28;20036;-64
2022/10/05 09:16:16;;;;;;;0.40;0.40;;;;;;;13.87;100.00;99633.94;5064835;28;20496;-64
2022/10/05 09:19:02;;;;;;;0.30;0.30;;;;;;;13.86;100.00;99629.63;5066461;28;20025;-64
2022/10/05 09:21:41;;;;;;;0.32;0.32;;;;;;;13.85;100.00;99633.13;5064906;28;20049;-65
2022/10/05 09:24:13;;;;;;;0.30;0.30;;;;;;;13.87;100.00;99635.66;5066118;28;20013;-64
2022/10/05 09:26:56;;;;;;;0.38;0.38;;;;;;;13.85;100.00;99638.34;5066103;28;20096;-64
2022/10/05 09:29:47;;;;;;;0.40;0.40;;;;;;;13.87;100.00;99640.88;5066083;28;20021;-63
2022/10/05 09:32:38;;;;;;;0.30;0.30;;;;;;;13.86;100.00;99626.16;5066099;28;20035;-63
2022/10/05 09:35:22;;;;;;;0.40;0.40;;;;;;;13.81;100.00;99623.72;5066257;28;20089;-63
2022/10/05 09:38:13;;;;;;;0.40;0.40;;;;;;;13.79;100.00;99635.06;5065955;28;20032;-63
2022/10/05 09:40:57;;;;;;;0.30;0.30;;;;;;;13.79;100.00;99630.72;5065770;28;20108;-64
2022/10/05 09:43:39;;;;;;;0.30;0.30;;;;;;;13.78;100.00;99622.94;5066022;28;20027;-64
2022/10/05 09:46:16;;;;;;;0.40;0.40;;;;;;;13.77;100.00;99619.47;5065783;28;20056;-64
2022/10/05 09:49:00;;;;;;;0.30;0.30;;;;;;;13.76;100.00;99625.63;5065814;28;20029;-64
2022/10/05 09:52:07;;;;;;;0.40;0.40;;;;;;;13.78;100.00;99618.59;5065769;28;20033;-64
2022/10/05 09:55:05;;;;;;;1.58;1.48;;;;;;;13.77;100.00;99614.25;5064854;28;20516;-64
2022/10/05 09:57:59;;;;;;;0.30;0.30;;;;;;;13.75;100.00;99610.88;5065475;28;20037;-64
2022/10/05 10:00:46;;;;;;;0.30;0.30;;;;;;;13.75;100.00;99608.28;5065599;28;20487;-63
2022/10/05 10:03:43;;;;;;;0.40;0.40;;;;;;;13.79;100.00;99595.94;5065479;28;20028;-64
2022/10/05 10:06:46;;;;;;;0.30;0.30;;;;;;;13.83;100.00;99597.56;5065117;28;20295;-63
2022/10/05 10:09:38;;;;;;;1.10;1.10;;;;;;;13.80;100.00;99597.66;5065371;28;20052;-63
2022/10/05 10:12:25;;;;;;;0.32;0.32;;;;;;;13.82;100.00;99607.13;5065341;28;20029;-64
2022/10/05 10:15:23;;;;;;;0.30;0.30;;;;;;;13.82;100.00;99608.88;5065217;28;20025;-63
2022/10/05 10:18:06;;;;;;;1.08;1.08;;;;;;;13.81;100.00;99621.09;5002897;28;20540;-63
2022/10/05 10:20:56;;;;;;;0.30;0.30;;;;;;;13.85;100.00;99611.41;5003163;28;20039;-64
2022/10/05 10:23:36;;;;;;;0.30;0.30;;;;;;;13.95;100.00;99588.44;5003096;28;20503;-64
2022/10/05 10:26:29;;;;;;;0.40;0.40;;;;;;;13.93;100.00;99588.50;5002888;28;20034;-63
2022/10/05 10:29:00;;;;;;;0.95;0.95;;;;;;;13.92;100.00;99585.94;5003373;28;20037;-63
2022/10/05 10:32:01;;;;;;;1.15;1.15;;;;;;;13.93;100.00;99585.88;5003259;28;20034;-63
2022/10/05 10:34:27;;;;;;;0.95;0.95;;;;;;;13.95;100.00;99601.47;4996199;28;20042;-63
2022/10/05 10:37:19;;;;;;;0.40;0.40;;;;;;;14.03;100.00;99602.06;5002820;28;20049;-63
2022/10/05 10:39:59;;;;;;;0.73;0.73;;;;;;;14.02;100.00;99610.81;4986431;28;20049;-63
2022/10/05 10:42:35;;;;;;;0.40;0.40;;;;;;;13.97;100.00;99600.53;5003084;28;20030;-63
2022/10/05 10:45:37;;;;;;;2.50;2.35;;;;;;;13.94;100.00;99587.59;5002914;28;20061;-64
2022/10/05 10:48:08;;;;;;;1.27;0.75;;;;;;;14.02;100.00;99592.53;5002920;28;20510;-64
2022/10/05 10:50:52;;;;;;;0.68;0.68;;;;;;;14.05;100.00;99600.25;5002962;28;20038;-64
2022/10/05 10:53:33;;;;;;;0.73;0.73;;;;;;;14.08;100.00;99594.94;5030746;28;20061;-64
2022/10/05 10:56:25;;;;;;;2.15;2.05;;;;;;;14.06;100.00;99606.31;5064485;28;20024;-64
2022/10/05 10:59:09;;;;;;;6.78;1.00;;;;;;;14.07;100.00;99608.91;5064682;28;20044;-63
2022/10/05 11:01:48;;;;;;;0.30;0.30;;;;;;;14.07;100.00;99610.66;5064576;28;20025;-64
2022/10/05 11:04:27;;;;;;;0.30;0.30;;;;;;;14.05;100.00;99592.44;5064374;28;20017;-63
2022/10/05 11:07:20;;;;;;;1.63;1.52;;;;;;;14.04;100.00;99593.31;5064335;28;20021;-63
2022/10/05 11:10:13;;;;;;;0.47;0.47;;;;;;;14.06;100.00;99599.34;5064340;28;20029;-64
2022/10/05 11:12:53;;;;;;;0.57;0.57;;;;;;;14.05;100.00;99596.78;5064178;28;20032;-64
2022/10/05 11:15:30;;;;;;;0.40;0.40;;;;;;;14.05;100.00;99594.19;5064461;28;20519;-64
2022/10/05 11:18:04;;;;;;;0.30;0.30;;;;;;;14.05;100.00;99589.81;5064407;28;20024;-63
2022/10/05 11:20:48;;;;;;;1.33;1.05;;;;;;;14.05;100.00;99592.44;5064310;28;20044;-64
2022/10/05 11:23:27;;;;;;;0.30;0.30;;;;;;;14.01;100.00;99585.59;5064464;28;20037;-65
2022/10/05 11:26:01;;;;;;;0.30;0.30;;;;;;;14.04;100.00;99595.09;5064225;28;20052;-64
2022/10/05 11:28:47;;;;;;;1.30;1.30;;;;;;;14.03;100.00;99591.63;5064421;28;20066;-65
2022/10/05 11:31:37;;;;;;;0.63;0.63;;;;;;;14.04;100.00;99584.66;5064236;28;20021;-65
2022/10/05 11:34:19;;;;;;;0.30;0.30;;;;;;;14.10;100.00;99581.81;5065890;28;20028;-65
2022/10/05 11:36:57;;;;;;;;;;;;;;;14.12;100.00;99577.41;5068853;28;20064;-65
2022/10/05 11:39:36;;;;;;;1.63;1.55;;;;;;;13.97;100.00;99557.94;5068106;28;19909;-66
2022/10/05 11:42:29;;;;;;;0.32;0.32;;;;;;;14.07;100.00;99589.78;5068425;28;20534;-68
2022/10/05 11:45:00;;;;;;;0.65;0.65;;;;;;;14.04;100.00;99580.28;5068298;28;20043;-69
2022/10/05 11:47:30;;;;;;;0.50;0.50;;;;;;;14.04;100.00;99574.22;5068073;28;20044;-69
2022/10/05 11:50:32;;;;;;;0.60;0.60;;;;;;;14.06;100.00;99586.28;5066615;28;20036;-69
2022/10/05 11:53:11;;;;;;;;;;;;;;;14.10;100.00;99587.91;5068515;28;20021;-70
2022/10/05 11:55:59;;;;;;;0.38;0.38;;;;;;;14.07;100.00;99574.09;5067786;28;19915;-69
2022/10/05 11:58:26;;;;;;;2.25;2.15;;;;;;;14.13;100.00;99569.53;5005726;28;20062;-69
2022/10/05 12:00:59;;;;;;;0.32;0.32;;;;;;;14.16;100.00;99562.47;5005715;28;20042;-70
2022/10/05 12:03:52;;;;;;;0.35;0.35;;;;;;;14.21;100.00;99566.63;5005727;28;20054;-70
2022/10/05 12:06:35;;;;;;;0.30;0.30;;;;;;;14.27;100.00;99547.25;5005658;28;20026;-69
2022/10/05 12:09:13;;;;;;;0.30;0.30;;;;;;;14.23;100.00;99541.28;5005321;28;20049;-69
2022/10/05 12:12:06;;;;;;;18.40;6.07;;;;;;;14.29;100.00;99547.19;5005897;28;20097;-70
2022/10/05 12:14:47;;;;;;;0.30;0.30;;;;;;;14.32;100.00;99552.31;4989570;28;20022;-69
2022/10/05 12:17:18;;;;;;;1.33;1.27;;;;;;;14.34;100.00;99553.97;5005660;28;20106;-70
2022/10/05 12:19:55;;;;;;;0.88;0.88;;;;;;;14.38;100.00;99552.06;5005639;28;20049;-68
2022/10/05 12:22:32;;;;;;;0.30;0.30;;;;;;;14.42;100.00;99550.19;5005277;28;20072;-69
2022/10/05 12:25:00;;;;;;;0.40;0.40;;;;;;;14.49;100.00;99543.81;5005339;28;20029;-69
2022/10/05 12:27:32;;;;;;;0.30;0.30;;;;;;;14.46;100.00;99546.53;5005405;28;20117;-69
2022/10/05 12:30:02;;;;;;;;;;;;;;;14.56;100.00;99544.44;5005862;28;20046;-69
2022/10/05 12:32:37;;;;;;;0.30;0.30;;;;;;;14.59;100.00;99546.94;5005416;28;20309;-69
2022/10/05 12:35:24;;;;;;;0.50;0.50;;;;;;;14.61;100.00;99556.44;5026540;28;20043;-69
2022/10/05 12:38:00;;;;;;;0.30;0.30;;;;;;;14.61;99.79;99534.66;5067148;28;20033;-69
2022/10/05 12:40:47;;;;;;;0.30;0.30;;;;;;;14.68;99.73;99537.91;5067004;28;20048;-69
2022/10/05 12:43:32;;;;;;;0.30;0.30;;;;;;;14.71;100.00;99527.31;5067265;28;20013;-71